Time;durP1;ratioP1;P1;durP2;ratioP2;P2;SDS_P1;SDS_P2;PMS_P1;PMS_P2;Temp;Humidity;BMP_temperature;BMP_pressure;BME280_temperature;BME280_humidity;BME280_pressure;Samples;Min_cycle;Max_cycle;Signal;HPM_P1;HPM_P2
2022/01/13 00:00:17;;;;;;;28.07;15.53;;;;;;;3.51;100.00;103208.78;5002981;28;20240;-55
2022/01/13 00:02:45;;;;;;;31.90;15.30;;;;;;;3.49;100.00;103210.41;4996523;28;20319;-55
2022/01/13 00:05:11;;;;;;;24.57;15.10;;;;;;;3.47;100.00;103210.28;4995778;28;20714;-54
2022/01/13 00:07:38;;;;;;;28.07;15.97;;;;;;;3.57;100.00;103201.41;4997015;28;20239;-54
2022/01/13 00:10:05;;;;;;;28.73;16.37;;;;;;;3.66;100.00;103189.06;4997120;28;20232;-55
2022/01/13 00:12:36;;;;;;;26.63;15.67;;;;;;;3.74;100.00;103200.84;5002670;28;20283;-55
2022/01/13 00:15:21;;;;;;;26.90;15.53;;;;;;;3.67;100.00;103196.06;4991360;28;20315;-57
2022/01/13 00:18:09;;;;;;;30.03;15.83;;;;;;;3.58;100.00;103182.47;5000184;28;20923;-55
2022/01/13 00:20:58;;;;;;;34.50;16.57;;;;;;;3.63;100.00;103188.84;4997948;28;20222;-55
2022/01/13 00:23:46;;;;;;;22.70;14.40;;;;;;;3.63;100.00;103178.47;4995590;28;20247;-55
2022/01/13 00:26:22;;;;;;;23.47;14.07;;;;;;;3.63;100.00;103170.66;5006255;28;20238;-55
2022/01/13 00:28:51;;;;;;;27.80;16.37;;;;;;;3.65;100.00;103171.69;4990328;28;20278;-55
2022/01/13 00:31:23;;;;;;;32.13;16.23;;;;;;;3.54;100.00;103167.44;5003437;28;20244;-55
2022/01/13 00:33:54;;;;;;;32.20;15.53;;;;;;;3.50;100.00;103176.72;5005919;28;20719;-56
2022/01/13 00:36:21;;;;;;;30.43;16.37;;;;;;;3.62;100.00;103176.69;4993654;28;20248;-56
2022/01/13 00:38:48;;;;;;;34.70;17.83;;;;;;;3.66;100.00;103168.28;4997632;28;20256;-56
2022/01/13 00:41:14;;;;;;;25.43;15.77;;;;;;;3.74;100.00;103167.06;4999011;28;20256;-56
2022/01/13 00:43:42;;;;;;;24.30;14.80;;;;;;;3.76;100.00;103165.50;4992249;28;20248;-57
2022/01/13 00:46:09;;;;;;;26.33;14.73;;;;;;;3.74;100.00;103164.47;5004610;28;20247;-57
2022/01/13 00:48:36;;;;;;;31.90;16.53;;;;;;;3.65;100.00;103156.09;4993651;28;20241;-56
2022/01/13 00:51:04;;;;;;;24.57;16.07;;;;;;;3.61;100.00;103154.06;5006902;28;20764;-55
2022/01/13 00:53:30;;;;;;;25.83;15.40;;;;;;;3.69;100.00;103147.72;4990597;28;20257;-56
2022/01/13 00:55:59;;;;;;;30.33;16.80;;;;;;;3.59;100.00;103140.09;5000038;28;20279;-57
2022/01/13 00:58:26;;;;;;;26.17;16.17;;;;;;;3.63;100.00;103149.88;5013171;28;20223;-55
2022/01/13 01:00:52;;;;;;;25.10;16.43;;;;;;;3.73;100.00;103160.09;5027320;28;20232;-56
2022/01/13 01:03:18;;;;;;;26.37;16.33;;;;;;;3.76;100.00;103157.69;5028157;28;20287;-55
2022/01/13 01:05:45;;;;;;;28.30;17.07;;;;;;;3.87;100.00;103157.50;5018671;28;20241;-56
2022/01/13 01:08:13;;;;;;;25.83;16.63;;;;;;;3.72;100.00;103146.97;5023257;28;20236;-55
2022/01/13 01:10:39;;;;;;;26.67;16.47;;;;;;;3.69;100.00;103137.31;5017226;28;20237;-55
2022/01/13 01:13:12;;;;;;;33.90;16.70;;;;;;;3.74;100.00;103141.09;5001200;28;20800;-55
2022/01/13 01:15:41;;;;;;;35.93;18.87;;;;;;;3.69;100.00;103146.81;4997100;28;20280;-55
2022/01/13 01:18:17;;;;;;;22.60;15.20;;;;;;;3.63;100.00;103142.09;4995443;28;20238;-55
2022/01/13 01:20:50;;;;;;;24.43;16.43;;;;;;;3.67;100.00;103149.28;5000645;28;20235;-56
2022/01/13 01:23:23;;;;;;;29.00;17.20;;;;;;;3.74;100.00;103156.69;5001557;28;20300;-55
2022/01/13 01:26:00;;;;;;;34.00;17.77;;;;;;;3.77;100.00;103156.88;5002388;28;20244;-56
2022/01/13 01:28:36;;;;;;;30.30;17.50;;;;;;;3.69;100.00;103152.91;4994004;28;20236;-55
2022/01/13 01:31:03;;;;;;;29.20;17.90;;;;;;;3.64;100.00;103151.69;5005340;28;20236;-55
2022/01/13 01:33:30;;;;;;;30.27;16.37;;;;;;;3.75;100.00;103148.09;5001185;28;20225;-56
2022/01/13 01:35:57;;;;;;;26.93;17.67;;;;;;;3.76;100.00;103151.59;5007328;28;20240;-56
2022/01/13 01:38:24;;;;;;;29.33;16.00;;;;;;;3.85;100.00;103151.28;5003355;28;20248;-56
2022/01/13 01:40:50;;;;;;;30.30;18.73;;;;;;;3.86;100.00;103166.06;5006260;28;20261;-56
2022/01/13 01:43:17;;;;;;;27.43;17.27;;;;;;;3.85;100.00;103154.78;5003789;28;20298;-56
2022/01/13 01:45:48;;;;;;;29.63;17.83;;;;;;;3.89;100.00;103153.28;5007465;28;20237;-55
2022/01/13 01:48:19;;;;;;;33.57;18.80;;;;;;;3.86;100.00;103155.69;5007795;28;20287;-55
2022/01/13 01:50:54;;;;;;;30.07;17.37;;;;;;;3.77;100.00;103143.91;4999500;28;20777;-55
2022/01/13 01:53:20;;;;;;;32.80;17.73;;;;;;;3.78;100.00;103142.19;5008101;28;20812;-55
2022/01/13 01:55:48;;;;;;;28.43;17.37;;;;;;;3.79;100.00;103147.50;4994113;28;20299;-55
2022/01/13 01:58:14;;;;;;;30.97;17.13;;;;;;;3.83;100.00;103139.13;4997492;28;20714;-57
2022/01/13 02:00:41;;;;;;;27.90;17.67;;;;;;;3.86;100.00;103142.69;5002575;28;20235;-55
2022/01/13 02:03:07;;;;;;;36.40;18.67;;;;;;;3.82;100.00;103160.69;5009529;28;20268;-55
2022/01/13 02:05:34;;;;;;;26.63;16.90;;;;;;;3.79;100.00;103163.09;5023814;28;20639;-55
2022/01/13 02:08:00;;;;;;;30.40;18.37;;;;;;;3.75;100.00;103155.88;5029226;28;20240;-57
2022/01/13 02:10:27;;;;;;;26.77;17.73;;;;;;;3.78;100.00;103160.38;5029284;28;20232;-56
2022/01/13 02:13:03;;;;;;;25.97;15.93;;;;;;;3.83;100.00;103148.59;5014050;28;20225;-55
2022/01/13 02:15:32;;;;;;;27.63;17.23;;;;;;;3.81;100.00;103138.09;5022701;28;20576;-56
2022/01/13 02:18:01;;;;;;;30.33;17.13;;;;;;;3.86;100.00;103128.03;5029308;28;20220;-58
2022/01/13 02:20:56;;;;;;;31.67;20.30;;;;;;;3.77;100.00;103133.50;5021992;28;20239;-55
2022/01/13 02:23:35;;;;;;;32.97;18.23;;;;;;;3.78;100.00;103131.81;4994595;28;20233;-55
2022/01/13 02:26:02;;;;;;;32.43;19.00;;;;;;;3.92;100.00;103119.72;5016515;28;20228;-57
2022/01/13 02:28:29;;;;;;;31.20;19.90;;;;;;;3.85;100.00;103110.63;5017421;28;20229;-55
2022/01/13 02:30:55;;;;;;;36.10;20.03;;;;;;;3.77;100.00;103107.53;5012296;28;20243;-55
2022/01/13 02:33:22;;;;;;;31.27;19.23;;;;;;;3.85;100.00;103108.00;5021649;28;20237;-58
2022/01/13 02:35:48;;;;;;;26.73;18.07;;;;;;;3.80;100.00;103110.31;5009026;28;20738;-56
2022/01/13 02:38:16;;;;;;;33.40;18.13;;;;;;;3.70;100.00;103104.44;4995907;28;20317;-56
2022/01/13 02:40:42;;;;;;;34.40;19.83;;;;;;;3.85;100.00;103099.31;4989381;28;20298;-56
2022/01/13 02:43:09;;;;;;;37.67;19.13;;;;;;;3.83;100.00;103094.94;4998462;28;20296;-54
2022/01/13 02:45:38;;;;;;;35.23;19.03;;;;;;;3.83;100.00;103087.16;4995159;28;20248;-56
2022/01/13 02:48:27;;;;;;;30.13;18.70;;;;;;;3.78;100.00;103085.03;5002197;28;20307;-54
2022/01/13 02:50:54;;;;;;;29.47;18.50;;;;;;;3.71;100.00;103091.53;4999324;28;20268;-56
2022/01/13 02:53:22;;;;;;;32.70;18.77;;;;;;;3.82;100.00;103080.13;5003338;28;20308;-56
2022/01/13 02:55:48;;;;;;;29.27;19.03;;;;;;;3.75;100.00;103090.94;4999545;28;20287;-55
2022/01/13 02:58:15;;;;;;;36.53;19.47;;;;;;;3.81;100.00;103070.53;4998599;28;20643;-55
2022/01/13 03:00:42;;;;;;;33.53;18.43;;;;;;;3.77;100.00;103068.56;5000083;28;20267;-54
2022/01/13 03:03:08;;;;;;;32.10;18.47;;;;;;;3.81;100.00;103070.53;5003671;28;20541;-55
2022/01/13 03:05:38;;;;;;;33.47;19.23;;;;;;;3.80;100.00;103068.75;5000500;28;20237;-55
2022/01/13 03:08:05;;;;;;;38.77;18.33;;;;;;;3.79;100.00;103061.78;4999228;28;20269;-55
2022/01/13 03:10:32;;;;;;;36.03;20.53;;;;;;;3.74;100.00;103062.25;5003021;28;20843;-55
2022/01/13 03:13:00;;;;;;;34.10;19.30;;;;;;;3.76;100.00;103063.28;5000602;28;20296;-56
2022/01/13 03:15:26;;;;;;;31.63;19.60;;;;;;;3.61;100.00;103052.75;4996044;28;20703;-56
2022/01/13 03:17:53;;;;;;;30.83;18.63;;;;;;;3.59;100.00;103051.78;4994217;28;20292;-55
2022/01/13 03:20:19;;;;;;;34.07;19.63;;;;;;;3.59;100.00;103056.97;5003854;28;20311;-56
2022/01/13 03:22:46;;;;;;;28.73;19.70;;;;;;;3.70;100.00;103055.97;5003699;28;20227;-55
2022/01/13 03:25:14;;;;;;;30.63;19.77;;;;;;;3.69;100.00;103064.56;4997592;28;20252;-56
2022/01/13 03:27:42;;;;;;;41.13;18.30;;;;;;;3.63;100.00;103063.28;4999263;28;20708;-56
2022/01/13 03:30:10;;;;;;;27.23;16.60;;;;;;;3.69;100.00;103055.88;4999696;28;20259;-56
2022/01/13 03:32:37;;;;;;;33.17;18.10;;;;;;;3.73;100.00;103058.78;5004625;28;20256;-54
2022/01/13 03:35:05;;;;;;;29.93;19.70;;;;;;;3.69;100.00;103058.47;4997568;28;20653;-54
2022/01/13 03:37:32;;;;;;;29.73;19.03;;;;;;;3.71;100.00;103056.88;5002457;28;20271;-56
2022/01/13 03:39:58;;;;;;;27.63;16.93;;;;;;;3.66;100.00;103055.69;5000406;28;20881;-57
2022/01/13 03:42:25;;;;;;;36.27;19.33;;;;;;;3.62;100.00;103052.00;5014512;28;20228;-56
2022/01/13 03:44:54;;;;;;;30.47;19.50;;;;;;;3.64;100.00;103055.56;5021141;28;20237;-60
2022/01/13 03:47:21;;;;;;;30.43;19.37;;;;;;;3.65;100.00;103057.38;5013574;28;20234;-60
2022/01/13 03:49:47;;;;;;;30.77;17.93;;;;;;;3.60;100.00;103061.38;5010358;28;20237;-56
2022/01/13 03:52:53;;;;;;;30.77;18.80;;;;;;;3.67;100.00;103058.38;5007528;28;20303;-54
2022/01/13 03:56:08;;;;;;;28.70;17.20;;;;;;;3.72;100.00;103061.25;5016402;28;20272;-56
2022/01/13 03:59:33;;;;;;;31.40;18.77;;;;;;;3.73;100.00;103048.38;5003767;28;20702;-55
2022/01/13 04:02:04;;;;;;;28.77;17.73;;;;;;;3.61;100.00;103041.47;4999375;28;20225;-57
2022/01/13 04:04:33;;;;;;;33.40;18.57;;;;;;;3.54;100.00;103040.19;5000753;28;20304;-56
2022/01/13 04:07:14;;;;;;;35.47;17.90;;;;;;;3.57;100.00;103043.00;4991293;28;20260;-55
2022/01/13 04:10:19;;;;;;;33.17;20.10;;;;;;;3.65;100.00;103040.88;5007426;28;20258;-55
2022/01/13 04:12:46;;;;;;;35.70;20.40;;;;;;;3.65;100.00;103039.22;4973410;28;20228;-54
2022/01/13 04:15:17;;;;;;;35.63;19.30;;;;;;;3.49;100.00;103033.81;5005948;28;20327;-56
2022/01/13 04:17:45;;;;;;;40.60;23.13;;;;;;;3.55;100.00;103037.72;4999927;28;20255;-55
2022/01/13 04:20:12;;;;;;;40.20;21.30;;;;;;;3.50;100.00;103035.59;4996588;28;20236;-56
2022/01/13 04:22:39;;;;;;;35.00;20.60;;;;;;;3.54;100.00;103037.59;4989593;28;20857;-56
2022/01/13 04:25:07;;;;;;;37.13;21.10;;;;;;;3.47;100.00;103036.28;5003425;28;20662;-55
2022/01/13 04:27:37;;;;;;;34.53;21.83;;;;;;;3.35;100.00;103031.22;4995062;28;20270;-56
2022/01/13 04:30:32;;;;;;;38.67;23.33;;;;;;;3.28;100.00;103035.91;4995258;28;20264;-55
2022/01/13 04:33:00;;;;;;;37.43;22.03;;;;;;;3.20;100.00;103035.41;4996330;28;20229;-55
2022/01/13 04:35:26;;;;;;;38.40;22.73;;;;;;;3.30;100.00;103032.63;4995818;28;20268;-56
2022/01/13 04:37:52;;;;;;;34.03;21.73;;;;;;;3.34;100.00;103008.66;4993325;28;20240;-54
2022/01/13 04:40:19;;;;;;;43.17;22.80;;;;;;;3.37;100.00;103010.56;4996250;28;20241;-54
2022/01/13 04:42:52;;;;;;;40.73;22.10;;;;;;;3.43;100.00;103018.72;5007105;28;20283;-55
2022/01/13 04:45:19;;;;;;;39.20;24.17;;;;;;;3.42;100.00;103018.63;5003241;28;20245;-55
2022/01/13 04:47:47;;;;;;;41.03;23.80;;;;;;;3.30;100.00;103022.25;5005550;28;20237;-55
2022/01/13 04:50:14;;;;;;;33.40;21.50;;;;;;;3.36;100.00;103021.72;5002886;28;20247;-55
2022/01/13 04:52:41;;;;;;;44.67;23.37;;;;;;;3.39;100.00;103016.72;4996125;28;20272;-56
2022/01/13 04:55:11;;;;;;;40.60;24.20;;;;;;;3.37;100.00;103017.41;4997551;28;20252;-55
2022/01/13 04:57:37;;;;;;;35.33;22.63;;;;;;;3.32;100.00;103018.03;4999131;28;20312;-57
2022/01/13 05:00:05;;;;;;;40.87;22.20;;;;;;;3.47;100.00;103019.81;4993364;28;20256;-56
2022/01/13 05:02:32;;;;;;;46.37;23.67;;;;;;;3.44;100.00;103024.81;5003290;28;20257;-55
2022/01/13 05:04:58;;;;;;;42.07;22.43;;;;;;;3.47;100.00;103014.63;5002892;28;20234;-57
2022/01/13 05:07:26;;;;;;;35.60;21.00;;;;;;;3.50;100.00;103010.53;4990021;28;20913;-55
2022/01/13 05:09:52;;;;;;;41.47;23.03;;;;;;;3.37;100.00;103007.97;4994334;28;20249;-55
2022/01/13 05:12:19;;;;;;;39.07;20.57;;;;;;;3.42;100.00;103009.13;5000369;28;20263;-55
2022/01/13 05:14:52;;;;;;;31.87;22.07;;;;;;;3.40;100.00;103010.72;4997875;28;20801;-54
2022/01/13 05:17:45;;;;;;;40.13;20.93;;;;;;;3.33;100.00;103001.66;5003505;28;20291;-55
2022/01/13 05:20:14;;;;;;;38.83;21.20;;;;;;;3.37;100.00;103012.22;4998747;28;20244;-55
2022/01/13 05:22:42;;;;;;;39.10;24.33;;;;;;;3.38;100.00;103019.25;5009602;28;20243;-55
2022/01/13 05:25:09;;;;;;;40.43;21.33;;;;;;;3.37;100.00;103018.34;5005549;28;20729;-56
2022/01/13 05:27:35;;;;;;;34.10;21.43;;;;;;;3.34;100.00;103018.13;5014102;28;20236;-56
2022/01/13 05:30:03;;;;;;;42.43;21.03;;;;;;;3.42;100.00;103016.94;5010034;28;20236;-55
2022/01/13 05:32:30;;;;;;;32.97;20.63;;;;;;;3.45;100.00;103024.03;5017790;28;20224;-55
2022/01/13 05:34:56;;;;;;;33.90;19.43;;;;;;;3.37;100.00;103020.00;4997303;28;20262;-55
2022/01/13 05:37:22;;;;;;;39.50;22.53;;;;;;;3.47;100.00;103010.31;4995574;28;20696;-60
2022/01/13 05:39:50;;;;;;;37.03;19.63;;;;;;;3.58;100.00;103008.44;4997531;28;20260;-56
2022/01/13 05:42:16;;;;;;;40.13;22.67;;;;;;;3.48;100.00;103013.84;5001623;28;20379;-56
2022/01/13 05:44:43;;;;;;;35.33;21.33;;;;;;;3.47;100.00;103023.31;4998187;28;20258;-56
2022/01/13 05:47:11;;;;;;;39.67;22.60;;;;;;;3.31;100.00;103026.63;5004356;28;20295;-56
2022/01/13 05:49:40;;;;;;;38.57;21.13;;;;;;;3.37;100.00;103023.53;4999314;28;20663;-56
2022/01/13 05:52:06;;;;;;;39.23;20.93;;;;;;;3.36;100.00;103029.50;4992346;28;20396;-55
2022/01/13 05:54:33;;;;;;;40.03;22.17;;;;;;;3.27;100.00;103024.63;4989227;28;20731;-55
2022/01/13 05:57:01;;;;;;;38.67;21.00;;;;;;;3.40;100.00;103018.50;4997537;28;20237;-55
2022/01/13 05:59:27;;;;;;;36.60;21.20;;;;;;;3.45;100.00;103016.25;5014403;28;20262;-55
2022/01/13 06:01:53;;;;;;;35.13;19.50;;;;;;;3.42;100.00;103005.66;5004965;28;20240;-53
2022/01/13 06:04:20;;;;;;;33.07;19.30;;;;;;;3.32;100.00;103005.03;5001537;28;20295;-55
2022/01/13 06:06:46;;;;;;;34.17;19.23;;;;;;;3.41;100.00;102994.38;5005708;28;20727;-55
2022/01/13 06:09:13;;;;;;;36.13;20.43;;;;;;;3.40;100.00;102991.66;4998939;28;20233;-55
2022/01/13 06:11:42;;;;;;;36.17;20.33;;;;;;;3.30;100.00;102993.69;5005973;28;20297;-57
2022/01/13 06:14:10;;;;;;;37.47;20.93;;;;;;;3.29;100.00;103006.53;4998185;28;20271;-56
2022/01/13 06:16:37;;;;;;;34.40;20.03;;;;;;;3.37;100.00;103018.34;5002947;28;20244;-55
2022/01/13 06:19:03;;;;;;;33.37;21.37;;;;;;;3.29;100.00;103020.41;4993054;28;20236;-55
2022/01/13 06:21:30;;;;;;;40.67;20.63;;;;;;;3.27;100.00;103011.66;4999163;28;20813;-56
2022/01/13 06:23:57;;;;;;;35.13;20.07;;;;;;;3.26;100.00;103020.22;5004766;28;20268;-55
2022/01/13 06:26:23;;;;;;;37.30;19.93;;;;;;;3.21;100.00;103026.81;5006247;28;20241;-54
2022/01/13 06:28:49;;;;;;;37.20;18.37;;;;;;;3.39;100.00;103021.03;5000017;28;20248;-56
2022/01/13 06:31:17;;;;;;;36.03;19.33;;;;;;;3.40;100.00;103043.59;5007239;28;20237;-56
2022/01/13 06:33:43;;;;;;;31.30;19.13;;;;;;;3.47;100.00;103040.59;4998197;28;20292;-55
2022/01/13 06:36:09;;;;;;;40.10;20.67;;;;;;;3.42;100.00;103036.81;5000386;28;20299;-55
2022/01/13 06:38:36;;;;;;;33.43;19.53;;;;;;;3.54;100.00;103038.47;4995105;28;20261;-55
2022/01/13 06:41:02;;;;;;;36.63;20.07;;;;;;;3.50;100.00;103040.78;5006530;28;20238;-58
2022/01/13 06:43:29;;;;;;;33.67;19.20;;;;;;;3.43;100.00;103043.78;4992006;28;20354;-54
2022/01/13 06:45:55;;;;;;;38.53;19.60;;;;;;;3.31;100.00;103051.69;5005263;28;20310;-56
2022/01/13 06:48:23;;;;;;;44.27;19.77;;;;;;;3.40;100.00;103059.16;5000305;28;20298;-54
2022/01/13 06:50:49;;;;;;;32.03;19.87;;;;;;;3.32;100.00;103050.88;4999753;28;20261;-57
2022/01/13 06:53:16;;;;;;;33.37;19.17;;;;;;;3.26;100.00;103040.09;4996532;28;20262;-56
2022/01/13 06:55:42;;;;;;;36.27;19.63;;;;;;;3.31;100.00;103049.09;5004803;28;20290;-55
2022/01/13 06:58:08;;;;;;;33.77;19.27;;;;;;;3.26;100.00;103051.34;4991083;28;20307;-56
2022/01/13 07:00:34;;;;;;;35.73;19.30;;;;;;;3.25;100.00;103046.97;4996167;28;20647;-55
2022/01/13 07:03:03;;;;;;;34.73;18.10;;;;;;;3.25;100.00;103053.88;5003746;28;20718;-56
2022/01/13 07:05:31;;;;;;;37.80;20.93;;;;;;;3.28;100.00;103052.38;5003176;28;20352;-55
2022/01/13 07:07:57;;;;;;;39.23;22.63;;;;;;;3.18;100.00;103047.38;5000518;28;20240;-55
2022/01/13 07:10:23;;;;;;;37.87;19.97;;;;;;;3.15;100.00;103052.34;5004898;28;20318;-56
2022/01/13 07:12:50;;;;;;;36.83;20.97;;;;;;;3.12;100.00;103046.94;4992487;28;20769;-56
2022/01/13 07:15:16;;;;;;;44.33;21.00;;;;;;;3.29;100.00;103048.97;4992136;28;20278;-56
2022/01/13 07:17:43;;;;;;;39.10;20.13;;;;;;;3.23;100.00;103046.00;4997997;28;20241;-55
2022/01/13 07:20:11;;;;;;;36.10;21.63;;;;;;;3.15;100.00;103033.28;5007451;28;20243;-55
2022/01/13 07:22:39;;;;;;;35.33;21.30;;;;;;;3.14;100.00;103035.00;5010647;28;20244;-55
2022/01/13 07:25:06;;;;;;;36.90;20.60;;;;;;;3.20;100.00;103030.22;5009027;28;20271;-56
2022/01/13 07:27:33;;;;;;;40.00;20.93;;;;;;;3.20;100.00;103027.63;5010791;28;20232;-55
2022/01/13 07:29:59;;;;;;;35.73;19.37;;;;;;;3.21;100.00;103044.09;5018487;28;20258;-57
2022/01/13 07:32:26;;;;;;;37.60;21.23;;;;;;;3.26;100.00;103053.97;5026327;28;20236;-56
2022/01/13 07:34:52;;;;;;;37.63;20.87;;;;;;;3.27;100.00;103057.47;5024554;28;20240;-56
2022/01/13 07:37:18;;;;;;;36.60;21.17;;;;;;;3.34;100.00;103055.38;5005893;28;20245;-57
2022/01/13 07:39:46;;;;;;;33.60;20.37;;;;;;;3.33;100.00;103069.19;4997250;28;20239;-55
2022/01/13 07:42:12;;;;;;;36.63;20.97;;;;;;;3.21;100.00;103067.44;5001302;28;20632;-55
2022/01/13 07:44:39;;;;;;;34.50;19.47;;;;;;;3.23;100.00;103071.97;4993759;28;20333;-55
2022/01/13 07:47:05;;;;;;;39.30;19.03;;;;;;;3.22;100.00;103054.56;5001388;28;20945;-56
2022/01/13 07:49:31;;;;;;;35.13;19.33;;;;;;;3.29;100.00;103056.75;5003103;28;20240;-55
2022/01/13 07:51:58;;;;;;;37.30;20.83;;;;;;;3.18;100.00;103047.38;4992602;28;20790;-55
2022/01/13 07:54:25;;;;;;;39.27;20.17;;;;;;;3.23;100.00;103042.47;4990621;28;20240;-54
2022/01/13 07:56:53;;;;;;;46.87;21.57;;;;;;;3.21;100.00;103047.56;4997601;28;20236;-54
2022/01/13 07:59:19;;;;;;;32.70;19.40;;;;;;;3.19;100.00;103049.16;4991879;28;20311;-55
2022/01/13 08:01:47;;;;;;;36.87;18.63;;;;;;;3.30;100.00;103063.78;5001619;28;20789;-54
2022/01/13 08:04:17;;;;;;;32.33;19.50;;;;;;;3.33;100.00;103068.25;5000597;28;20654;-55
2022/01/13 08:06:43;;;;;;;38.60;18.63;;;;;;;3.33;100.00;103069.19;4993406;28;20291;-55
2022/01/13 08:09:09;;;;;;;34.53;18.77;;;;;;;3.34;100.00;103073.56;5001122;28;20240;-57
2022/01/13 08:11:36;;;;;;;32.40;18.30;;;;;;;3.34;100.00;103065.78;5001774;28;20259;-53
2022/01/13 08:14:03;;;;;;;38.47;18.20;;;;;;;3.47;100.00;103069.16;4995002;28;20334;-55
2022/01/13 08:16:34;;;;;;;41.80;19.03;;;;;;;3.42;100.00;103074.06;4995519;28;20308;-54
2022/01/13 08:21:44;;;;;;;37.23;19.67;;;;;;;3.45;100.00;103079.47;5001358;28;20868;-55
2022/01/13 08:24:10;;;;;;;33.07;18.97;;;;;;;3.33;100.00;103092.53;5000334;28;20671;-55
2022/01/13 08:26:37;;;;;;;29.60;18.10;;;;;;;3.40;100.00;103098.13;4997109;28;20755;-54
2022/01/13 08:29:04;;;;;;;33.47;19.60;;;;;;;3.40;100.00;103092.91;4994370;28;20256;-55
2022/01/13 08:31:31;;;;;;;35.07;18.13;;;;;;;3.39;100.00;103093.72;4996608;28;20248;-58
2022/01/13 08:33:57;;;;;;;34.47;18.30;;;;;;;3.39;100.00;103083.34;5001526;28;20298;-55
2022/01/13 08:36:23;;;;;;;37.90;20.27;;;;;;;3.35;100.00;103083.13;4997886;28;20665;-55
2022/01/13 08:38:50;;;;;;;34.20;18.60;;;;;;;3.47;100.00;103061.38;4988113;28;20737;-55
2022/01/13 08:41:16;;;;;;;41.27;19.27;;;;;;;3.39;100.00;103075.56;4998167;28;20795;-55
2022/01/13 08:43:43;;;;;;;38.40;19.63;;;;;;;3.49;100.00;103086.66;4998221;28;20298;-55
2022/01/13 08:46:11;;;;;;;32.10;18.77;;;;;;;3.56;100.00;103073.25;5002402;28;20240;-55
2022/01/13 08:48:37;;;;;;;29.13;18.23;;;;;;;3.57;100.00;103068.97;5006823;28;20249;-54
2022/01/13 08:51:04;;;;;;;30.20;16.70;;;;;;;3.49;100.00;103070.16;4999779;28;20283;-55
2022/01/13 08:53:31;;;;;;;32.57;19.27;;;;;;;3.59;100.00;103064.78;5002629;28;20742;-57
2022/01/13 08:55:58;;;;;;;35.03;19.83;;;;;;;3.61;100.00;103059.66;5003029;28;20302;-55
2022/01/13 08:58:25;;;;;;;38.30;19.33;;;;;;;3.60;100.00;103053.56;4994626;28;20248;-56
2022/01/13 09:00:55;;;;;;;34.10;17.47;;;;;;;3.57;100.00;103054.28;4999543;28;20627;-55
2022/01/13 09:03:23;;;;;;;34.87;19.20;;;;;;;3.54;100.00;103058.38;4999514;28;20263;-54
2022/01/13 09:05:50;;;;;;;33.17;18.73;;;;;;;3.52;100.00;103062.59;4998597;28;20238;-56
2022/01/13 09:08:16;;;;;;;39.27;19.50;;;;;;;3.56;100.00;103061.97;5005514;28;20236;-56
2022/01/13 09:10:43;;;;;;;41.23;19.50;;;;;;;3.53;100.00;103073.06;4996519;28;20256;-56
2022/01/13 09:13:12;;;;;;;35.67;20.13;;;;;;;3.57;100.00;103064.66;4997712;28;20234;-57
2022/01/13 09:15:44;;;;;;;32.93;17.70;;;;;;;3.66;100.00;103064.38;4996379;28;20248;-56
2022/01/13 09:18:14;;;;;;;34.17;17.67;;;;;;;3.55;100.00;103061.09;5003649;28;20248;-55
2022/01/13 09:20:43;;;;;;;35.60;18.63;;;;;;;3.51;100.00;103053.91;5005686;28;20335;-55
2022/01/13 09:23:09;;;;;;;34.73;19.17;;;;;;;3.54;100.00;103058.38;4993655;28;20291;-55
2022/01/13 09:25:36;;;;;;;40.77;18.73;;;;;;;3.48;100.00;103063.19;4996026;28;20236;-55
2022/01/13 09:28:04;;;;;;;36.20;18.17;;;;;;;3.49;100.00;103059.78;4998120;28;20257;-56
2022/01/13 09:30:30;;;;;;;34.00;18.27;;;;;;;3.51;100.00;103058.16;5002785;28;20228;-55
2022/01/13 09:32:57;;;;;;;36.67;19.57;;;;;;;3.52;100.00;103054.78;5000765;28;20259;-56
2022/01/13 09:35:23;;;;;;;38.60;18.93;;;;;;;3.53;100.00;103047.09;5003277;28;20326;-57
2022/01/13 09:37:51;;;;;;;35.60;18.70;;;;;;;3.64;100.00;103045.19;5005366;28;20240;-55
2022/01/13 09:40:17;;;;;;;39.10;18.70;;;;;;;3.59;100.00;103054.38;5003585;28;20233;-57
2022/01/13 09:42:45;;;;;;;40.93;21.20;;;;;;;3.63;100.00;103056.38;5000178;28;20676;-56
2022/01/13 09:45:13;;;;;;;31.77;18.23;;;;;;;3.74;100.00;103052.75;4994626;28;20322;-55
2022/01/13 09:47:40;;;;;;;31.80;16.50;;;;;;;3.54;100.00;103064.44;4995434;28;20240;-55
2022/01/13 09:50:10;;;;;;;39.53;19.60;;;;;;;3.67;100.00;103062.66;4997581;28;20307;-55
2022/01/13 09:52:36;;;;;;;42.87;21.00;;;;;;;3.52;100.00;103059.97;5000682;28;20236;-56
2022/01/13 09:55:05;;;;;;;36.77;19.50;;;;;;;3.49;100.00;103070.16;4997013;28;20248;-56
2022/01/13 09:57:31;;;;;;;39.90;18.83;;;;;;;3.52;100.00;103059.97;4999165;28;20377;-55
2022/01/13 09:59:58;;;;;;;41.63;20.60;;;;;;;3.63;100.00;103058.97;4995476;28;20237;-55
2022/01/13 10:02:24;;;;;;;32.50;18.83;;;;;;;3.72;100.00;103051.78;4994741;28;20268;-56
2022/01/13 10:04:54;;;;;;;35.73;18.83;;;;;;;3.69;100.00;103045.50;4995793;28;20247;-55
2022/01/13 10:07:31;;;;;;;33.53;16.93;;;;;;;3.71;100.00;103044.78;5000998;28;20256;-54
2022/01/13 10:09:59;;;;;;;35.50;19.97;;;;;;;3.77;100.00;103034.78;4992500;28;20224;-54
2022/01/13 10:12:30;;;;;;;39.10;19.40;;;;;;;3.85;100.00;103040.47;5000800;28;20265;-56
2022/01/13 10:17:47;;;;;;;38.23;18.83;;;;;;;3.79;100.00;103027.06;4998551;28;20500;-55
2022/01/13 10:20:14;;;;;;;41.53;19.90;;;;;;;3.76;100.00;103033.00;5000338;28;20236;-54
2022/01/13 10:22:40;;;;;;;33.60;17.53;;;;;;;3.75;100.00;103023.38;5002640;28;20748;-55
2022/01/13 10:25:08;;;;;;;37.90;18.07;;;;;;;3.75;100.00;103025.97;5005550;28;20516;-55
2022/01/13 10:27:37;;;;;;;32.17;16.73;;;;;;;3.92;100.00;103023.56;5000202;28;20290;-55
2022/01/13 10:30:15;;;;;;;35.90;18.50;;;;;;;3.77;100.00;103029.59;4988411;28;20295;-56
2022/01/13 10:32:44;;;;;;;33.67;17.73;;;;;;;3.85;100.00;103034.38;4995137;28;20233;-57
2022/01/13 10:35:12;;;;;;;37.90;19.17;;;;;;;3.80;100.00;103026.28;4996088;28;20232;-54
2022/01/13 10:37:39;;;;;;;34.53;16.70;;;;;;;3.88;100.00;103016.38;5005735;28;20590;-56
2022/01/13 10:40:08;;;;;;;35.07;18.53;;;;;;;3.90;100.00;103019.97;5002428;28;20260;-56
2022/01/13 10:45:27;;;;;;;32.57;17.40;;;;;;;3.90;100.00;103018.28;4995676;28;20236;-56
2022/01/13 10:47:55;;;;;;;32.83;17.53;;;;;;;3.88;100.00;103012.06;5002981;28;20263;-55
2022/01/13 10:50:22;;;;;;;36.53;17.87;;;;;;;3.90;100.00;103017.38;4998883;28;20555;-55
2022/01/13 10:52:50;;;;;;;32.90;15.50;;;;;;;3.91;100.00;103006.19;4998691;28;20244;-55
2022/01/13 10:55:19;;;;;;;32.27;17.10;;;;;;;3.89;100.00;103011.25;4992383;28;20256;-55
2022/01/13 10:57:47;;;;;;;34.80;17.50;;;;;;;3.82;100.00;103009.06;4995598;28;20240;-56
2022/01/13 11:00:20;;;;;;;34.57;17.10;;;;;;;3.89;100.00;103005.16;4992593;28;20253;-55
2022/01/13 11:02:48;;;;;;;31.73;15.93;;;;;;;3.94;100.00;103004.66;4997261;28;20889;-55
2022/01/13 11:05:14;;;;;;;32.20;15.93;;;;;;;3.98;100.00;103003.16;4998234;28;20270;-55
2022/01/13 11:07:41;;;;;;;34.37;16.30;;;;;;;4.02;100.00;102997.34;5001515;28;20256;-54
2022/01/13 11:10:09;;;;;;;30.20;14.93;;;;;;;4.03;100.00;102986.13;4994971;28;20786;-54
2022/01/13 11:12:38;;;;;;;26.87;13.97;;;;;;;4.04;100.00;102982.75;5000013;28;20233;-55
2022/01/13 11:15:12;;;;;;;27.93;14.13;;;;;;;4.01;100.00;102991.25;4987986;28;20234;-56
2022/01/13 11:17:39;;;;;;;28.60;15.30;;;;;;;4.01;100.00;102986.06;4998513;28;20245;-56
2022/01/13 11:20:08;;;;;;;25.93;14.57;;;;;;;4.09;100.00;102989.13;4994779;28;20241;-55
2022/01/13 11:22:36;;;;;;;31.23;15.17;;;;;;;3.99;100.00;102991.94;5001339;28;20352;-55
2022/01/13 11:25:03;;;;;;;26.03;16.03;;;;;;;3.86;100.00;102989.38;4990945;28;20241;-55